sensor_id;sensor_type;location;lat;lon;timestamp;temperature;humidity
12315;DHT22;23886;46.614;14.276;2023-04-03T00:00:28;9.00;99.90
12315;DHT22;23886;46.614;14.276;2023-04-03T00:02:56;8.90;99.90
12315;DHT22;23886;46.614;14.276;2023-04-03T00:05:23;8.60;99.90
12315;DHT22;23886;46.614;14.276;2023-04-03T00:07:50;8.50;99.90
12315;DHT22;23886;46.614;14.276;2023-04-03T00:10:18;8.50;99.90
12315;DHT22;23886;46.614;14.276;2023-04-03T00:12:45;8.50;99.90
12315;DHT22;23886;46.614;14.276;2023-04-03T00:15:12;8.40;99.90
12315;DHT22;23886;46.614;14.276;2023-04-03T00:17:39;8.30;99.90
12315;DHT22;23886;46.614;14.276;2023-04-03T00:20:07;8.30;99.90
12315;DHT22;23886;46.614;14.276;2023-04-03T00:22:34;8.30;99.90
12315;DHT22;23886;46.614;14.276;2023-04-03T00:25:01;8.10;99.90
12315;DHT22;23886;46.614;14.276;2023-04-03T00:27:30;8.00;99.90
12315;DHT22;23886;46.614;14.276;2023-04-03T00:29:57;8.00;99.90
12315;DHT22;23886;46.614;14.276;2023-04-03T00:32:24;8.10;99.90
12315;DHT22;23886;46.614;14.276;2023-04-03T00:34:51;8.10;99.90
12315;DHT22;23886;46.614;14.276;2023-04-03T00:37:18;8.10;99.90
12315;DHT22;23886;46.614;14.276;2023-04-03T00:39:45;8.00;99.90
12315;DHT22;23886;46.614;14.276;2023-04-03T00:42:12;7.90;99.90
12315;DHT22;23886;46.614;14.276;2023-04-03T00:47:44;7.70;99.90
12315;DHT22;23886;46.614;14.276;2023-04-03T00:50:12;7.60;99.90
12315;DHT22;23886;46.614;14.276;2023-04-03T00:52:39;7.50;99.90
12315;DHT22;23886;46.614;14.276;2023-04-03T00:55:08;7.50;99.90
12315;DHT22;23886;46.614;14.276;2023-04-03T00:57:36;7.40;99.90
12315;DHT22;23886;46.614;14.276;2023-04-03T01:00:09;7.40;99.90
12315;DHT22;23886;46.614;14.276;2023-04-03T01:02:37;7.40;99.90
12315;DHT22;23886;46.614;14.276;2023-04-03T01:05:08;7.50;99.90
12315;DHT22;23886;46.614;14.276;2023-04-03T01:07:35;7.40;99.90
12315;DHT22;23886;46.614;14.276;2023-04-03T01:10:05;7.30;99.90
12315;DHT22;23886;46.614;14.276;2023-04-03T01:12:34;7.10;99.90
12315;DHT22;23886;46.614;14.276;2023-04-03T01:15:05;7.00;99.90
12315;DHT22;23886;46.614;14.276;2023-04-03T01:17:34;6.90;99.90
12315;DHT22;23886;46.614;14.276;2023-04-03T01:23:36;6.70;99.90
12315;DHT22;23886;46.614;14.276;2023-04-03T01:26:08;6.60;99.90
12315;DHT22;23886;46.614;14.276;2023-04-03T01:28:37;6.40;99.90
12315;DHT22;23886;46.614;14.276;2023-04-03T01:31:11;6.50;99.90
12315;DHT22;23886;46.614;14.276;2023-04-03T01:33:42;6.40;99.90
12315;DHT22;23886;46.614;14.276;2023-04-03T01:36:10;6.40;99.90
12315;DHT22;23886;46.614;14.276;2023-04-03T01:38:39;6.40;99.90
12315;DHT22;23886;46.614;14.276;2023-04-03T01:41:06;6.40;99.90
12315;DHT22;23886;46.614;14.276;2023-04-03T01:43:33;6.30;99.90
12315;DHT22;23886;46.614;14.276;2023-04-03T01:46:00;6.30;99.90
12315;DHT22;23886;46.614;14.276;2023-04-03T01:48:27;6.30;99.90
12315;DHT22;23886;46.614;14.276;2023-04-03T01:50:56;6.30;99.90
12315;DHT22;23886;46.614;14.276;2023-04-03T01:53:23;6.10;99.90
12315;DHT22;23886;46.614;14.276;2023-04-03T01:55:50;6.10;99.90
12315;DHT22;23886;46.614;14.276;2023-04-03T01:58:17;6.10;99.90
12315;DHT22;23886;46.614;14.276;2023-04-03T02:00:44;6.00;99.90
12315;DHT22;23886;46.614;14.276;2023-04-03T02:03:11;5.90;99.90
12315;DHT22;23886;46.614;14.276;2023-04-03T02:05:38;5.90;99.90
12315;DHT22;23886;46.614;14.276;2023-04-03T02:08:06;5.80;99.90
12315;DHT22;23886;46.614;14.276;2023-04-03T02:10:33;5.80;99.90
12315;DHT22;23886;46.614;14.276;2023-04-03T02:13:01;5.80;99.90
12315;DHT22;23886;46.614;14.276;2023-04-03T02:15:28;5.70;99.90
12315;DHT22;23886;46.614;14.276;2023-04-03T02:17:55;5.80;99.90
12315;DHT22;23886;46.614;14.276;2023-04-03T02:20:22;5.80;99.90
12315;DHT22;23886;46.614;14.276;2023-04-03T02:22:49;5.90;99.90
12315;DHT22;23886;46.614;14.276;2023-04-03T02:25:17;5.80;99.90
12315;DHT22;23886;46.614;14.276;2023-04-03T02:27:44;5.90;99.90
12315;DHT22;23886;46.614;14.276;2023-04-03T02:30:11;5.80;99.90
12315;DHT22;23886;46.614;14.276;2023-04-03T02:32:40;5.90;99.90
12315;DHT22;23886;46.614;14.276;2023-04-03T02:35:08;5.70;99.90
12315;DHT22;23886;46.614;14.276;2023-04-03T02:37:35;5.70;99.90
12315;DHT22;23886;46.614;14.276;2023-04-03T02:40:02;5.60;99.90
12315;DHT22;23886;46.614;14.276;2023-04-03T02:42:30;5.70;99.90
12315;DHT22;23886;46.614;14.276;2023-04-03T02:44:57;5.70;99.90
12315;DHT22;23886;46.614;14.276;2023-04-03T02:47:26;5.70;99.90
12315;DHT22;23886;46.614;14.276;2023-04-03T02:49:53;5.70;99.90
12315;DHT22;23886;46.614;14.276;2023-04-03T02:52:20;5.70;99.90
12315;DHT22;23886;46.614;14.276;2023-04-03T02:54:47;5.40;99.90
12315;DHT22;23886;46.614;14.276;2023-04-03T02:57:15;5.30;99.90
12315;DHT22;23886;46.614;14.276;2023-04-03T02:59:43;5.10;99.90
12315;DHT22;23886;46.614;14.276;2023-04-03T03:02:10;4.90;99.90
12315;DHT22;23886;46.614;14.276;2023-04-03T03:04:37;4.90;99.90
12315;DHT22;23886;46.614;14.276;2023-04-03T03:07:04;4.80;99.90
12315;DHT22;23886;46.614;14.276;2023-04-03T03:09:31;4.90;99.90
12315;DHT22;23886;46.614;14.276;2023-04-03T03:11:58;5.10;99.90
12315;DHT22;23886;46.614;14.276;2023-04-03T03:14:25;5.00;99.90
12315;DHT22;23886;46.614;14.276;2023-04-03T03:16:54;5.00;99.90
12315;DHT22;23886;46.614;14.276;2023-04-03T03:19:21;5.10;99.90
12315;DHT22;23886;46.614;14.276;2023-04-03T03:21:48;5.00;99.90
12315;DHT22;23886;46.614;14.276;2023-04-03T03:24:15;4.90;99.90
12315;DHT22;23886;46.614;14.276;2023-04-03T03:26:42;4.70;99.90
12315;DHT22;23886;46.614;14.276;2023-04-03T03:29:09;4.60;99.90
12315;DHT22;23886;46.614;14.276;2023-04-03T03:31:36;4.50;99.90
12315;DHT22;23886;46.614;14.276;2023-04-03T03:34:04;4.60;99.90
12315;DHT22;23886;46.614;14.276;2023-04-03T03:36:31;4.70;99.90
12315;DHT22;23886;46.614;14.276;2023-04-03T03:38:58;4.70;99.90
12315;DHT22;23886;46.614;14.276;2023-04-03T03:41:25;4.80;99.90
12315;DHT22;23886;46.614;14.276;2023-04-03T03:43:52;4.80;99.90
12315;DHT22;23886;46.614;14.276;2023-04-03T03:46:19;4.60;99.90
12315;DHT22;23886;46.614;14.276;2023-04-03T03:48:46;4.50;99.90
12315;DHT22;23886;46.614;14.276;2023-04-03T03:51:15;4.50;99.90
12315;DHT22;23886;46.614;14.276;2023-04-03T03:53:42;4.70;99.90
12315;DHT22;23886;46.614;14.276;2023-04-03T03:56:09;4.60;99.90
12315;DHT22;23886;46.614;14.276;2023-04-03T03:58:36;4.60;99.90
12315;DHT22;23886;46.614;14.276;2023-04-03T04:01:04;4.70;99.90
12315;DHT22;23886;46.614;14.276;2023-04-03T04:03:32;4.60;99.90
12315;DHT22;23886;46.614;14.276;2023-04-03T04:05:59;4.60;99.90
12315;DHT22;23886;46.614;14.276;2023-04-03T04:08:27;4.70;99.90
12315;DHT22;23886;46.614;14.276;2023-04-03T04:10:54;4.70;99.90
12315;DHT22;23886;46.614;14.276;2023-04-03T04:13:21;4.60;99.90
12315;DHT22;23886;46.614;14.276;2023-04-03T04:15:48;4.60;99.90
12315;DHT22;23886;46.614;14.276;2023-04-03T04:18:15;4.60;99.90
12315;DHT22;23886;46.614;14.276;2023-04-03T04:20:45;4.40;99.90
12315;DHT22;23886;46.614;14.276;2023-04-03T04:23:12;4.40;99.90
12315;DHT22;23886;46.614;14.276;2023-04-03T04:25:40;4.40;99.90
12315;DHT22;23886;46.614;14.276;2023-04-03T04:28:07;4.40;99.90
12315;DHT22;23886;46.614;14.276;2023-04-03T04:30:34;4.30;99.90
12315;DHT22;23886;46.614;14.276;2023-04-03T04:33:01;4.40;99.90
12315;DHT22;23886;46.614;14.276;2023-04-03T04:35:28;4.40;99.90
12315;DHT22;23886;46.614;14.276;2023-04-03T04:37:55;4.30;99.90
12315;DHT22;23886;46.614;14.276;2023-04-03T04:40:22;4.10;99.90
12315;DHT22;23886;46.614;14.276;2023-04-03T04:42:50;4.10;99.90
12315;DHT22;23886;46.614;14.276;2023-04-03T04:45:18;4.20;99.90
12315;DHT22;23886;46.614;14.276;2023-04-03T04:47:45;4.20;99.90
12315;DHT22;23886;46.614;14.276;2023-04-03T04:50:12;4.10;99.90
12315;DHT22;23886;46.614;14.276;2023-04-03T04:52:39;4.10;99.90
12315;DHT22;23886;46.614;14.276;2023-04-03T04:55:07;4.20;99.90
12315;DHT22;23886;46.614;14.276;2023-04-03T04:57:34;4.30;99.90
12315;DHT22;23886;46.614;14.276;2023-04-03T05:00:04;4.20;99.90
12315;DHT22;23886;46.614;14.276;2023-04-03T05:02:32;4.20;99.90
12315;DHT22;23886;46.614;14.276;2023-04-03T05:04:59;4.30;99.90
12315;DHT22;23886;46.614;14.276;2023-04-03T05:07:26;4.20;99.90
12315;DHT22;23886;46.614;14.276;2023-04-03T05:09:53;4.20;99.90
12315;DHT22;23886;46.614;14.276;2023-04-03T05:12:20;4.30;99.90
12315;DHT22;23886;46.614;14.276;2023-04-03T05:14:47;4.40;99.90
12315;DHT22;23886;46.614;14.276;2023-04-03T05:17:15;4.50;99.90
12315;DHT22;23886;46.614;14.276;2023-04-03T05:19:42;4.40;99.90
12315;DHT22;23886;46.614;14.276;2023-04-03T05:22:10;4.40;99.90
12315;DHT22;23886;46.614;14.276;2023-04-03T05:24:37;4.40;99.90
12315;DHT22;23886;46.614;14.276;2023-04-03T05:27:04;4.40;99.90
12315;DHT22;23886;46.614;14.276;2023-04-03T05:29:30;4.50;99.90
12315;DHT22;23886;46.614;14.276;2023-04-03T05:31:57;4.70;99.90
12315;DHT22;23886;46.614;14.276;2023-04-03T05:34:26;4.80;99.90
12315;DHT22;23886;46.614;14.276;2023-04-03T05:36:53;4.70;99.90
12315;DHT22;23886;46.614;14.276;2023-04-03T05:39:20;4.70;99.90
12315;DHT22;23886;46.614;14.276;2023-04-03T05:41:48;4.80;99.90
12315;DHT22;23886;46.614;14.276;2023-04-03T05:44:15;5.00;99.90
12315;DHT22;23886;46.614;14.276;2023-04-03T05:46:42;5.00;99.90
12315;DHT22;23886;46.614;14.276;2023-04-03T05:49:09;5.10;99.90
12315;DHT22;23886;46.614;14.276;2023-04-03T05:51:38;5.20;99.90
12315;DHT22;23886;46.614;14.276;2023-04-03T05:54:09;5.30;99.50
12315;DHT22;23886;46.614;14.276;2023-04-03T05:56:37;5.50;99.30
12315;DHT22;23886;46.614;14.276;2023-04-03T05:59:04;5.60;99.00
12315;DHT22;23886;46.614;14.276;2023-04-03T06:01:33;5.60;98.40
12315;DHT22;23886;46.614;14.276;2023-04-03T06:04:00;5.80;97.90
12315;DHT22;23886;46.614;14.276;2023-04-03T06:06:48;5.90;96.70
12315;DHT22;23886;46.614;14.276;2023-04-03T06:09:17;6.00;96.50
12315;DHT22;23886;46.614;14.276;2023-04-03T06:11:45;6.10;96.10
12315;DHT22;23886;46.614;14.276;2023-04-03T06:14:12;6.10;96.10
12315;DHT22;23886;46.614;14.276;2023-04-03T06:16:39;6.20;95.90
12315;DHT22;23886;46.614;14.276;2023-04-03T06:19:07;6.10;96.20
12315;DHT22;23886;46.614;14.276;2023-04-03T06:21:34;6.30;95.00
12315;DHT22;23886;46.614;14.276;2023-04-03T06:24:03;6.40;94.10
12315;DHT22;23886;46.614;14.276;2023-04-03T06:26:31;6.30;94.40
12315;DHT22;23886;46.614;14.276;2023-04-03T06:28:59;6.40;94.50
12315;DHT22;23886;46.614;14.276;2023-04-03T06:31:26;6.70;94.10
12315;DHT22;23886;46.614;14.276;2023-04-03T06:33:53;6.70;93.80
12315;DHT22;23886;46.614;14.276;2023-04-03T06:36:20;6.60;93.90
12315;DHT22;23886;46.614;14.276;2023-04-03T06:38:48;6.70;92.90
12315;DHT22;23886;46.614;14.276;2023-04-03T06:41:17;6.80;92.50
12315;DHT22;23886;46.614;14.276;2023-04-03T06:43:44;6.70;93.00
12315;DHT22;23886;46.614;14.276;2023-04-03T06:46:14;6.80;92.10
12315;DHT22;23886;46.614;14.276;2023-04-03T06:48:42;6.90;91.60
12315;DHT22;23886;46.614;14.276;2023-04-03T06:51:16;7.10;91.50
12315;DHT22;23886;46.614;14.276;2023-04-03T06:53:44;7.20;91.20
12315;DHT22;23886;46.614;14.276;2023-04-03T06:56:11;7.20;90.80
12315;DHT22;23886;46.614;14.276;2023-04-03T06:58:40;7.20;90.40
12315;DHT22;23886;46.614;14.276;2023-04-03T07:01:07;7.20;90.20
12315;DHT22;23886;46.614;14.276;2023-04-03T07:03:35;7.30;89.80
12315;DHT22;23886;46.614;14.276;2023-04-03T07:06:02;7.40;89.90
12315;DHT22;23886;46.614;14.276;2023-04-03T07:08:30;7.60;88.40
12315;DHT22;23886;46.614;14.276;2023-04-03T07:10:57;7.70;88.90
12315;DHT22;23886;46.614;14.276;2023-04-03T07:13:24;7.80;86.40
12315;DHT22;23886;46.614;14.276;2023-04-03T07:15:53;7.70;86.30
12315;DHT22;23886;46.614;14.276;2023-04-03T07:18:20;7.70;86.20
12315;DHT22;23886;46.614;14.276;2023-04-03T07:20:48;7.60;85.00
12315;DHT22;23886;46.614;14.276;2023-04-03T07:23:15;7.60;87.00
12315;DHT22;23886;46.614;14.276;2023-04-03T07:25:43;7.80;85.00
12315;DHT22;23886;46.614;14.276;2023-04-03T07:28:11;7.60;84.40
12315;DHT22;23886;46.614;14.276;2023-04-03T07:30:49;7.70;85.10
12315;DHT22;23886;46.614;14.276;2023-04-03T07:33:18;7.80;85.90
12315;DHT22;23886;46.614;14.276;2023-04-03T07:35:46;8.00;85.10
12315;DHT22;23886;46.614;14.276;2023-04-03T07:38:14;8.00;84.40
12315;DHT22;23886;46.614;14.276;2023-04-03T07:40:45;7.70;83.40
12315;DHT22;23886;46.614;14.276;2023-04-03T07:43:13;7.90;84.70
12315;DHT22;23886;46.614;14.276;2023-04-03T07:45:40;8.00;83.60
12315;DHT22;23886;46.614;14.276;2023-04-03T07:48:07;8.00;81.90
12315;DHT22;23886;46.614;14.276;2023-04-03T07:50:36;8.10;83.00
12315;DHT22;23886;46.614;14.276;2023-04-03T07:53:03;8.10;82.10
12315;DHT22;23886;46.614;14.276;2023-04-03T07:55:31;8.10;83.90
12315;DHT22;23886;46.614;14.276;2023-04-03T07:57:58;8.00;83.40
12315;DHT22;23886;46.614;14.276;2023-04-03T08:00:25;7.90;82.50
12315;DHT22;23886;46.614;14.276;2023-04-03T08:02:52;8.00;82.00
12315;DHT22;23886;46.614;14.276;2023-04-03T08:05:20;8.30;76.50
12315;DHT22;23886;46.614;14.276;2023-04-03T08:07:49;8.40;75.30
12315;DHT22;23886;46.614;14.276;2023-04-03T08:10:16;8.40;74.70
12315;DHT22;23886;46.614;14.276;2023-04-03T08:12:45;8.60;77.20
12315;DHT22;23886;46.614;14.276;2023-04-03T08:15:13;8.70;76.20
12315;DHT22;23886;46.614;14.276;2023-04-03T08:17:40;9.10;74.80
12315;DHT22;23886;46.614;14.276;2023-04-03T08:20:09;9.20;72.40
12315;DHT22;23886;46.614;14.276;2023-04-03T08:22:36;9.20;72.50
12315;DHT22;23886;46.614;14.276;2023-04-03T08:25:05;9.30;71.70
12315;DHT22;23886;46.614;14.276;2023-04-03T08:27:32;9.40;71.70
12315;DHT22;23886;46.614;14.276;2023-04-03T08:29:59;9.40;72.70
12315;DHT22;23886;46.614;14.276;2023-04-03T08:32:27;9.40;72.60
12315;DHT22;23886;46.614;14.276;2023-04-03T08:34:54;9.40;70.60
12315;DHT22;23886;46.614;14.276;2023-04-03T08:37:21;9.20;70.80
12315;DHT22;23886;46.614;14.276;2023-04-03T08:39:48;9.00;70.20
12315;DHT22;23886;46.614;14.276;2023-04-03T08:42:23;9.10;73.00
12315;DHT22;23886;46.614;14.276;2023-04-03T08:45:01;9.00;70.60
12315;DHT22;23886;46.614;14.276;2023-04-03T08:47:37;9.40;72.50
12315;DHT22;23886;46.614;14.276;2023-04-03T08:50:07;9.30;69.10
12315;DHT22;23886;46.614;14.276;2023-04-03T08:52:39;9.50;71.10
12315;DHT22;23886;46.614;14.276;2023-04-03T08:55:16;9.80;69.10
12315;DHT22;23886;46.614;14.276;2023-04-03T08:57:46;9.60;68.00
12315;DHT22;23886;46.614;14.276;2023-04-03T09:00:17;9.80;69.10
12315;DHT22;23886;46.614;14.276;2023-04-03T09:02:47;9.90;66.40
12315;DHT22;23886;46.614;14.276;2023-04-03T09:05:16;9.80;66.50
12315;DHT22;23886;46.614;14.276;2023-04-03T09:07:45;9.40;67.40
12315;DHT22;23886;46.614;14.276;2023-04-03T09:10:14;9.50;67.70
12315;DHT22;23886;46.614;14.276;2023-04-03T09:12:47;9.50;65.90
12315;DHT22;23886;46.614;14.276;2023-04-03T09:15:25;9.60;67.50
12315;DHT22;23886;46.614;14.276;2023-04-03T09:17:59;9.70;66.20
12315;DHT22;23886;46.614;14.276;2023-04-03T09:20:39;9.70;66.10
12315;DHT22;23886;46.614;14.276;2023-04-03T09:23:28;9.90;67.50
12315;DHT22;23886;46.614;14.276;2023-04-03T09:26:01;10.10;64.80
12315;DHT22;23886;46.614;14.276;2023-04-03T09:28:34;9.90;65.50
12315;DHT22;23886;46.614;14.276;2023-04-03T09:31:05;9.90;64.80
12315;DHT22;23886;46.614;14.276;2023-04-03T09:33:39;9.90;65.60
12315;DHT22;23886;46.614;14.276;2023-04-03T09:36:07;9.90;64.60
12315;DHT22;23886;46.614;14.276;2023-04-03T09:38:34;10.10;62.50
12315;DHT22;23886;46.614;14.276;2023-04-03T09:41:05;10.00;63.20
12315;DHT22;23886;46.614;14.276;2023-04-03T09:43:35;10.00;64.00
12315;DHT22;23886;46.614;14.276;2023-04-03T09:46:25;10.00;63.50
12315;DHT22;23886;46.614;14.276;2023-04-03T09:48:56;10.20;64.00
12315;DHT22;23886;46.614;14.276;2023-04-03T09:51:26;9.90;62.80
12315;DHT22;23886;46.614;14.276;2023-04-03T09:53:54;10.10;62.20
12315;DHT22;23886;46.614;14.276;2023-04-03T09:56:24;10.20;62.60
12315;DHT22;23886;46.614;14.276;2023-04-03T09:59:07;10.00;61.10
12315;DHT22;23886;46.614;14.276;2023-04-03T10:01:37;9.90;63.50
12315;DHT22;23886;46.614;14.276;2023-04-03T10:04:09;10.00;62.30
12315;DHT22;23886;46.614;14.276;2023-04-03T10:06:39;10.30;62.70
12315;DHT22;23886;46.614;14.276;2023-04-03T10:09:18;10.50;63.60
12315;DHT22;23886;46.614;14.276;2023-04-03T10:12:04;10.50;61.50
12315;DHT22;23886;46.614;14.276;2023-04-03T10:14:34;10.30;61.30
12315;DHT22;23886;46.614;14.276;2023-04-03T10:17:18;10.30;61.30
12315;DHT22;23886;46.614;14.276;2023-04-03T10:19:47;10.40;62.30
12315;DHT22;23886;46.614;14.276;2023-04-03T10:22:20;10.30;61.50
12315;DHT22;23886;46.614;14.276;2023-04-03T10:25:00;10.30;63.10
12315;DHT22;23886;46.614;14.276;2023-04-03T10:27:40;10.40;61.80
12315;DHT22;23886;46.614;14.276;2023-04-03T10:30:20;10.20;61.20
12315;DHT22;23886;46.614;14.276;2023-04-03T10:32:58;10.20;60.70
12315;DHT22;23886;46.614;14.276;2023-04-03T10:35:37;10.10;61.40
12315;DHT22;23886;46.614;14.276;2023-04-03T10:38:12;10.60;62.50
12315;DHT22;23886;46.614;14.276;2023-04-03T10:40:47;10.70;60.30
12315;DHT22;23886;46.614;14.276;2023-04-03T10:43:21;10.70;60.80
12315;DHT22;23886;46.614;14.276;2023-04-03T10:45:59;10.60;59.70
12315;DHT22;23886;46.614;14.276;2023-04-03T10:48:47;10.60;60.70
12315;DHT22;23886;46.614;14.276;2023-04-03T10:51:24;10.60;61.30
12315;DHT22;23886;46.614;14.276;2023-04-03T10:53:56;10.60;59.30
12315;DHT22;23886;46.614;14.276;2023-04-03T10:56:31;10.70;60.50
12315;DHT22;23886;46.614;14.276;2023-04-03T10:59:03;10.70;58.90
12315;DHT22;23886;46.614;14.276;2023-04-03T11:01:38;10.70;58.60
12315;DHT22;23886;46.614;14.276;2023-04-03T11:04:07;10.80;62.00
12315;DHT22;23886;46.614;14.276;2023-04-03T11:06:38;10.90;60.70
12315;DHT22;23886;46.614;14.276;2023-04-03T11:09:15;10.80;59.80
12315;DHT22;23886;46.614;14.276;2023-04-03T11:11:43;11.00;59.70
12315;DHT22;23886;46.614;14.276;2023-04-03T11:14:17;11.10;61.70
12315;DHT22;23886;46.614;14.276;2023-04-03T11:16:53;11.30;60.50
12315;DHT22;23886;46.614;14.276;2023-04-03T11:19:32;11.30;59.90
12315;DHT22;23886;46.614;14.276;2023-04-03T11:22:04;11.10;61.10
12315;DHT22;23886;46.614;14.276;2023-04-03T11:24:36;10.90;59.70
12315;DHT22;23886;46.614;14.276;2023-04-03T11:27:05;11.00;61.60
12315;DHT22;23886;46.614;14.276;2023-04-03T11:29:37;11.10;59.70
12315;DHT22;23886;46.614;14.276;2023-04-03T11:32:25;11.00;59.70
12315;DHT22;23886;46.614;14.276;2023-04-03T11:34:56;11.00;59.40
12315;DHT22;23886;46.614;14.276;2023-04-03T11:37:31;11.30;60.50
12315;DHT22;23886;46.614;14.276;2023-04-03T11:40:00;11.60;59.50
12315;DHT22;23886;46.614;14.276;2023-04-03T11:42:33;11.50;60.10
12315;DHT22;23886;46.614;14.276;2023-04-03T11:45:31;11.70;60.90
12315;DHT22;23886;46.614;14.276;2023-04-03T11:48:02;12.00;62.80
12315;DHT22;23886;46.614;14.276;2023-04-03T11:50:41;11.80;59.80
12315;DHT22;23886;46.614;14.276;2023-04-03T11:53:31;11.80;59.50
12315;DHT22;23886;46.614;14.276;2023-04-03T11:59:14;11.60;59.00
12315;DHT22;23886;46.614;14.276;2023-04-03T12:01:45;11.90;62.60
12315;DHT22;23886;46.614;14.276;2023-04-03T12:04:16;12.00;59.20
12315;DHT22;23886;46.614;14.276;2023-04-03T12:07:18;12.10;58.80
12315;DHT22;23886;46.614;14.276;2023-04-03T12:10:19;12.30;59.90
12315;DHT22;23886;46.614;14.276;2023-04-03T12:13:01;12.40;59.30
12315;DHT22;23886;46.614;14.276;2023-04-03T12:15:49;11.70;58.40
12315;DHT22;23886;46.614;14.276;2023-04-03T12:18:59;11.60;59.40
12315;DHT22;23886;46.614;14.276;2023-04-03T12:24:31;12.80;59.10
12315;DHT22;23886;46.614;14.276;2023-04-03T12:27:05;12.60;57.10
12315;DHT22;23886;46.614;14.276;2023-04-03T12:29:37;12.30;57.50
12315;DHT22;23886;46.614;14.276;2023-04-03T12:32:12;12.10;57.20
12315;DHT22;23886;46.614;14.276;2023-04-03T12:38:01;12.70;57.90
12315;DHT22;23886;46.614;14.276;2023-04-03T12:40:45;12.50;57.80
12315;DHT22;23886;46.614;14.276;2023-04-03T12:43:25;12.20;56.30
12315;DHT22;23886;46.614;14.276;2023-04-03T12:45:59;12.40;58.10
12315;DHT22;23886;46.614;14.276;2023-04-03T12:48:30;12.70;56.70
12315;DHT22;23886;46.614;14.276;2023-04-03T12:50:58;12.30;56.60
12315;DHT22;23886;46.614;14.276;2023-04-03T12:53:27;12.20;55.70
12315;DHT22;23886;46.614;14.276;2023-04-03T12:55:57;12.50;56.30
12315;DHT22;23886;46.614;14.276;2023-04-03T12:58:44;12.90;55.00
12315;DHT22;23886;46.614;14.276;2023-04-03T13:01:14;13.10;56.60
12315;DHT22;23886;46.614;14.276;2023-04-03T13:03:45;13.30;55.50
12315;DHT22;23886;46.614;14.276;2023-04-03T13:06:17;14.40;54.40
12315;DHT22;23886;46.614;14.276;2023-04-03T13:08:52;14.60;54.30
12315;DHT22;23886;46.614;14.276;2023-04-03T13:11:22;14.20;53.90
12315;DHT22;23886;46.614;14.276;2023-04-03T13:13:58;14.00;53.20
12315;DHT22;23886;46.614;14.276;2023-04-03T13:16:25;13.30;53.20
12315;DHT22;23886;46.614;14.276;2023-04-03T13:18:54;13.50;54.50
12315;DHT22;23886;46.614;14.276;2023-04-03T13:21:23;13.30;54.80
12315;DHT22;23886;46.614;14.276;2023-04-03T13:23:53;13.70;54.30
12315;DHT22;23886;46.614;14.276;2023-04-03T13:26:25;13.50;54.20
12315;DHT22;23886;46.614;14.276;2023-04-03T13:28:54;14.50;55.70
12315;DHT22;23886;46.614;14.276;2023-04-03T13:31:26;15.00;54.20
12315;DHT22;23886;46.614;14.276;2023-04-03T13:33:57;16.60;50.70
12315;DHT22;23886;46.614;14.276;2023-04-03T13:36:36;15.20;51.90
12315;DHT22;23886;46.614;14.276;2023-04-03T13:39:17;15.50;52.70
12315;DHT22;23886;46.614;14.276;2023-04-03T13:41:50;16.60;51.00
12315;DHT22;23886;46.614;14.276;2023-04-03T13:44:30;16.00;50.90
12315;DHT22;23886;46.614;14.276;2023-04-03T13:46:59;16.00;51.30
12315;DHT22;23886;46.614;14.276;2023-04-03T13:49:33;15.90;50.70
12315;DHT22;23886;46.614;14.276;2023-04-03T13:52:02;15.10;51.40
12315;DHT22;23886;46.614;14.276;2023-04-03T13:54:32;16.20;50.40
12315;DHT22;23886;46.614;14.276;2023-04-03T13:57:10;17.30;50.40
12315;DHT22;23886;46.614;14.276;2023-04-03T13:59:38;17.50;49.20
12315;DHT22;23886;46.614;14.276;2023-04-03T14:02:15;17.40;49.70
12315;DHT22;23886;46.614;14.276;2023-04-03T14:04:52;17.40;49.00
12315;DHT22;23886;46.614;14.276;2023-04-03T14:07:22;17.20;49.30
12315;DHT22;23886;46.614;14.276;2023-04-03T14:09:50;16.00;49.70
12315;DHT22;23886;46.614;14.276;2023-04-03T14:12:26;15.50;51.00
12315;DHT22;23886;46.614;14.276;2023-04-03T14:14:54;15.60;50.50
12315;DHT22;23886;46.614;14.276;2023-04-03T14:17:25;16.00;50.30
12315;DHT22;23886;46.614;14.276;2023-04-03T14:19:53;15.70;48.90
12315;DHT22;23886;46.614;14.276;2023-04-03T14:22:22;16.60;48.80
12315;DHT22;23886;46.614;14.276;2023-04-03T14:24:50;17.30;47.60
12315;DHT22;23886;46.614;14.276;2023-04-03T14:27:21;16.90;47.50
12315;DHT22;23886;46.614;14.276;2023-04-03T14:29:50;16.70;48.70
12315;DHT22;23886;46.614;14.276;2023-04-03T14:32:19;16.50;48.20
12315;DHT22;23886;46.614;14.276;2023-04-03T14:34:47;17.00;48.40
12315;DHT22;23886;46.614;14.276;2023-04-03T14:37:17;16.90;49.20
12315;DHT22;23886;46.614;14.276;2023-04-03T14:39:45;17.90;47.70
12315;DHT22;23886;46.614;14.276;2023-04-03T14:42:15;18.30;47.80
12315;DHT22;23886;46.614;14.276;2023-04-03T14:44:43;18.50;48.40
12315;DHT22;23886;46.614;14.276;2023-04-03T14:47:12;17.40;47.30
12315;DHT22;23886;46.614;14.276;2023-04-03T14:49:40;17.10;47.50
12315;DHT22;23886;46.614;14.276;2023-04-03T14:52:18;16.10;48.60
12315;DHT22;23886;46.614;14.276;2023-04-03T14:54:45;17.20;48.50
12315;DHT22;23886;46.614;14.276;2023-04-03T14:57:14;17.80;47.40
12315;DHT22;23886;46.614;14.276;2023-04-03T14:59:44;18.00;47.80
12315;DHT22;23886;46.614;14.276;2023-04-03T15:02:25;17.30;47.90
12315;DHT22;23886;46.614;14.276;2023-04-03T15:04:52;17.10;48.30
12315;DHT22;23886;46.614;14.276;2023-04-03T15:07:19;15.20;50.70
12315;DHT22;23886;46.614;14.276;2023-04-03T15:09:46;15.10;50.30
12315;DHT22;23886;46.614;14.276;2023-04-03T15:12:13;15.50;50.40
12315;DHT22;23886;46.614;14.276;2023-04-03T15:14:40;16.10;49.60
12315;DHT22;23886;46.614;14.276;2023-04-03T15:17:14;16.20;49.90
12315;DHT22;23886;46.614;14.276;2023-04-03T15:19:42;15.10;51.20
12315;DHT22;23886;46.614;14.276;2023-04-03T15:22:13;15.90;49.50
12315;DHT22;23886;46.614;14.276;2023-04-03T15:24:40;15.70;50.50
12315;DHT22;23886;46.614;14.276;2023-04-03T15:27:08;14.40;52.00
12315;DHT22;23886;46.614;14.276;2023-04-03T15:29:35;14.90;52.40
12315;DHT22;23886;46.614;14.276;2023-04-03T15:32:02;15.10;51.60
12315;DHT22;23886;46.614;14.276;2023-04-03T15:34:31;14.40;50.80
12315;DHT22;23886;46.614;14.276;2023-04-03T15:36:58;15.30;50.70
12315;DHT22;23886;46.614;14.276;2023-04-03T15:39:25;14.00;51.00
12315;DHT22;23886;46.614;14.276;2023-04-03T15:41:52;13.80;52.40
12315;DHT22;23886;46.614;14.276;2023-04-03T15:44:20;14.10;51.10
12315;DHT22;23886;46.614;14.276;2023-04-03T15:46:48;14.70;50.80
12315;DHT22;23886;46.614;14.276;2023-04-03T15:49:17;15.10;51.10
12315;DHT22;23886;46.614;14.276;2023-04-03T15:51:45;15.60;49.60
12315;DHT22;23886;46.614;14.276;2023-04-03T15:54:12;15.30;49.60
12315;DHT22;23886;46.614;14.276;2023-04-03T15:56:39;14.80;50.70
12315;DHT22;23886;46.614;14.276;2023-04-03T15:59:06;13.20;52.60